Time;durP1;ratioP1;P1;durP2;ratioP2;P2;SDS_P1;SDS_P2;PMS_P1;PMS_P2;Temp;Humidity;BMP_temperature;BMP_pressure;BME280_temperature;BME280_humidity;BME280_pressure;Samples;Min_cycle;Max_cycle;Signal;HPM_P1;HPM_P2
2022/04/14 00:02:14;;;;;;;;;;;;;;;14.68;36.43;100095.75;4472331;31;32138;-66
2022/04/14 00:04:43;;;;;;;;;;;;;;;14.60;36.53;100095.53;4490859;31;34081;-66
2022/04/14 00:07:11;;;;;;;;;;;;;;;14.48;37.04;100093.00;4489115;31;34352;-67
2022/04/14 00:09:40;;;;;;;;;;;;;;;14.38;37.09;100088.44;4469333;31;32295;-66
2022/04/14 00:12:09;;;;;;;;;;;;;;;14.14;37.63;100094.06;4484405;31;34459;-66
2022/04/14 00:14:36;;;;;;;;;;;;;;;14.14;37.44;100088.66;4484482;32;33964;-64
2022/04/14 00:17:04;;;;;;;;;;;;;;;13.75;38.84;100090.16;4486040;31;35536;-66
2022/04/14 00:19:32;;;;;;;;;;;;;;;13.85;38.42;100084.87;4483565;31;34237;-68
2022/04/14 00:22:00;;;;;;;;;;;;;;;14.25;37.28;100086.91;4486284;31;33193;-68
2022/04/14 00:24:28;;;;;;;;;;;;;;;14.26;37.41;100083.25;4472824;32;33958;-66
2022/04/14 00:26:56;;;;;;;;;;;;;;;14.39;37.04;100095.53;4485148;31;33937;-67
2022/04/14 00:29:24;;;;;;;;;;;;;;;14.18;37.57;100092.81;4486553;31;33945;-69
2022/04/14 00:31:52;;;;;;;;;;;;;;;14.28;37.44;100094.72;4489735;31;32595;-67
2022/04/14 00:34:20;;;;;;;;;;;;;;;14.17;37.34;100090.25;4484106;31;34416;-66
2022/04/14 00:36:48;;;;;;;;;;;;;;;13.74;39.22;100085.78;4485832;31;34056;-66
2022/04/14 00:39:16;;;;;;;;;;;;;;;13.68;38.50;100088.97;4486451;31;34365;-65
2022/04/14 00:41:44;;;;;;;;;;;;;;;13.80;38.12;100092.47;4489085;31;34469;-65
2022/04/14 00:44:12;;;;;;;;;;;;;;;13.64;38.60;100090.19;4475298;31;34724;-65
2022/04/14 00:46:40;;;;;;;;;;;;;;;13.72;38.44;100083.19;4494092;31;33792;-65
2022/04/14 00:49:09;;;;;;;;;;;;;;;13.71;38.32;100083.34;4488838;31;35360;-65
2022/04/14 00:51:37;;;;;;;;;;;;;;;13.90;37.73;100086.22;4495800;31;32455;-67
2022/04/14 00:54:05;;;;;;;;;;;;;;;13.81;37.68;100081.59;4494526;31;32792;-66
2022/04/14 00:56:33;;;;;;;;;;;;;;;13.62;38.17;100079.56;4484892;31;33418;-67
2022/04/14 00:59:01;;;;;;;;;;;;;;;13.36;38.96;100079.00;4492523;31;35129;-67
2022/04/14 01:01:29;;;;;;;;;;;;;;;13.67;38.34;100079.16;4496765;31;33582;-65
2022/04/14 01:03:59;;;;;;;;;;;;;;;13.58;39.01;100077.22;4486704;31;32742;-64
2022/04/14 01:06:28;;;;;;;;;;;;;;;13.71;38.81;100075.25;4497095;31;33801;-64
2022/04/14 01:11:50;;;;;;;;;;;;;;;13.36;38.51;100080.84;4499300;31;31971;-65
2022/04/14 01:14:27;;;;;;;;;;;;;;;13.42;38.44;100077.66;4487285;31;33328;-67
2022/04/14 01:16:59;;;;;;;;;;;;;;;13.21;39.19;100081.03;4484164;32;33982;-69
2022/04/14 01:19:27;;;;;;;;;;;;;;;13.23;38.97;100076.41;4485547;31;32785;-65
2022/04/14 01:22:06;;;;;;;;;;;;;;;13.22;39.01;100077.37;4497914;31;32288;-68
2022/04/14 01:24:35;;;;;;;;;;;;;;;13.13;38.99;100074.56;4495742;31;33807;-64
2022/04/14 01:27:04;;;;;;;;;;;;;;;13.07;39.20;100077.78;4493228;31;33219;-68
2022/04/14 01:29:31;;;;;;;;;;;;;;;13.12;39.04;100081.78;4486994;31;32818;-64
2022/04/14 01:32:02;;;;;;;;;;;;;;;13.18;38.92;100070.53;4497762;31;33341;-65
2022/04/14 01:34:32;;;;;;;;;;;;;;;13.26;38.52;100073.50;4498746;31;34368;-67
2022/04/14 01:37:00;;;;;;;;;;;;;;;13.20;39.00;100073.12;4497076;31;33093;-64
2022/04/14 01:39:29;;;;;;;;;;;;;;;13.28;38.49;100070.69;4483388;31;34470;-64
2022/04/14 01:41:57;;;;;;;;;;;;;;;13.32;38.54;100082.03;4484066;31;33407;-68
2022/04/14 01:44:26;;;;;;;;;;;;;;;13.18;39.02;100083.97;4485271;31;32678;-65
2022/04/14 01:46:54;;;;;;;;;;;;;;;13.37;38.41;100080.69;4483967;31;34391;-67
2022/04/14 01:49:22;;;;;;;;;;;;;;;13.17;38.89;100086.81;4502172;31;34110;-66
2022/04/14 01:51:50;;;;;;;;;;;;;;;13.31;38.73;100083.88;4504795;31;33748;-68
2022/04/14 01:54:18;;;;;;;;;;;;;;;13.28;38.63;100086.81;4501100;31;34851;-66
2022/04/14 01:56:46;;;;;;;;;;;;;;;12.88;39.13;100091.81;4492330;31;35676;-64
2022/04/14 01:59:15;;;;;;;;;;;;;;;12.99;38.78;100089.13;4501771;31;34922;-65
2022/04/14 02:01:43;;;;;;;;;;;;;;;12.83;39.56;100082.25;4495065;31;34399;-64
2022/04/14 02:04:11;;;;;;;;;;;;;;;12.64;40.32;100087.38;4500525;31;32823;-64
2022/04/14 02:06:41;;;;;;;;;;;;;;;13.04;39.16;100078.88;4495143;31;34218;-64
2022/04/14 02:09:09;;;;;;;;;;;;;;;13.16;38.98;100083.28;4500146;31;32803;-66
2022/04/14 02:11:36;;;;;;;;;;;;;;;13.30;38.01;100079.50;4488135;32;32678;-65
2022/04/14 02:14:04;;;;;;;;;;;;;;;13.05;39.17;100085.94;4498247;31;32648;-65
2022/04/14 02:16:33;;;;;;;;;;;;;;;13.02;39.21;100084.34;4501618;31;35487;-65
2022/04/14 02:19:01;;;;;;;;;;;;;;;13.07;39.16;100081.31;4504413;31;33224;-63
2022/04/14 02:21:29;;;;;;;;;;;;;;;13.25;38.62;100076.31;4497800;31;33456;-63
2022/04/14 02:23:57;;;;;;;;;;;;;;;13.40;38.20;100083.12;4487653;31;33010;-62
2022/04/14 02:26:25;;;;;;;;;;;;;;;13.57;37.39;100083.59;4489415;31;33047;-65
2022/04/14 02:28:54;;;;;;;;;;;;;;;13.59;37.19;100087.03;4481489;31;32737;-65
2022/04/14 02:31:23;;;;;;;;;;;;;;;13.34;38.01;100085.47;4488345;31;33488;-65
2022/04/14 02:33:51;;;;;;;;;;;;;;;13.23;38.26;100089.84;4488377;32;32983;-65
2022/04/14 02:36:23;;;;;;;;;;;;;;;12.81;39.59;100096.81;4491171;31;34222;-63
2022/04/14 02:38:54;;;;;;;;;;;;;;;12.95;39.19;100095.72;4490908;31;34043;-63
2022/04/14 02:41:23;;;;;;;;;;;;;;;13.23;38.06;100095.22;4497304;31;33877;-65
2022/04/14 02:43:52;;;;;;;;;;;;;;;13.01;38.25;100092.53;4494531;31;32770;-64
2022/04/14 02:46:21;;;;;;;;;;;;;;;13.43;37.22;100090.97;4486374;31;32970;-66
2022/04/14 02:48:50;;;;;;;;;;;;;;;13.60;36.68;100084.19;4490817;31;34149;-65
2022/04/14 02:51:19;;;;;;;;;;;;;;;13.31;37.21;100085.72;4491632;31;32036;-63
2022/04/14 02:53:48;;;;;;;;;;;;;;;13.43;37.09;100085.59;4484586;31;33943;-64
2022/04/14 02:56:18;;;;;;;;;;;;;;;13.42;37.11;100077.66;4488245;31;34302;-66
2022/04/14 02:58:46;;;;;;;;;;;;;;;12.95;38.42;100085.81;4484566;31;31828;-64
2022/04/14 03:01:16;;;;;;;;;;;;;;;13.12;37.90;100073.72;4481161;31;33321;-64
2022/04/14 03:03:45;;;;;;;;;;;;;;;12.80;38.67;100077.13;4486471;31;33304;-66
2022/04/14 03:06:14;;;;;;;;;;;;;;;13.02;38.19;100078.97;4483259;31;33908;-64
2022/04/14 03:08:42;;;;;;;;;;;;;;;12.95;37.88;100091.19;4482612;31;34356;-65
2022/04/14 03:11:12;;;;;;;;;;;;;;;12.63;38.73;100090.19;4485118;31;34101;-64
2022/04/14 03:13:42;;;;;;;;;;;;;;;12.59;38.71;100082.38;4490654;31;32847;-67
2022/04/14 03:16:11;;;;;;;;;;;;;;;12.30;39.84;100086.44;4483909;31;33269;-64
2022/04/14 03:18:41;;;;;;;;;;;;;;;12.56;39.31;100087.13;4492994;31;32897;-66
2022/04/14 03:21:11;;;;;;;;;;;;;;;12.88;38.48;100089.13;4494836;31;33423;-65
2022/04/14 03:23:45;;;;;;;;;;;;;;;12.78;38.88;100086.31;4496311;31;34187;-66
2022/04/14 03:26:20;;;;;;;;;;;;;;;12.60;39.25;100085.91;4485109;31;33529;-65
2022/04/14 03:28:49;;;;;;;;;;;;;;;12.51;40.18;100083.94;4492994;31;33227;-65
2022/04/14 03:31:19;;;;;;;;;;;;;;;12.49;40.30;100086.75;4491103;31;32619;-65
2022/04/14 03:33:47;;;;;;;;;;;;;;;12.51;40.49;100079.41;4482093;32;32939;-65
2022/04/14 03:36:16;;;;;;;;;;;;;;;12.77;39.75;100088.13;4481286;32;35147;-64
2022/04/14 03:38:46;;;;;;;;;;;;;;;12.85;38.88;100084.84;4482418;32;32870;-65
2022/04/14 03:41:16;;;;;;;;;;;;;;;12.94;38.73;100091.34;4481931;32;32208;-64
2022/04/14 03:43:45;;;;;;;;;;;;;;;13.00;37.51;100082.75;4481502;32;34469;-64
2022/04/14 03:46:15;;;;;;;;;;;;;;;12.72;38.00;100090.31;4481877;32;34302;-63
2022/04/14 03:48:48;;;;;;;;;;;;;;;12.63;37.93;100090.19;4490170;31;33030;-65
2022/04/14 03:51:17;;;;;;;;;;;;;;;12.62;38.14;100093.84;4487241;31;33087;-66
2022/04/14 03:53:46;;;;;;;;;;;;;;;12.33;38.64;100095.13;4488893;31;34955;-63
2022/04/14 03:56:15;;;;;;;;;;;;;;;12.28;38.98;100093.75;4495957;31;32892;-68
2022/04/14 03:58:44;;;;;;;;;;;;;;;12.19;39.37;100099.81;4494632;31;33692;-65
2022/04/14 04:01:13;;;;;;;;;;;;;;;11.91;41.13;100093.88;4496562;31;33347;-62
2022/04/14 04:03:43;;;;;;;;;;;;;;;12.18;39.37;100106.16;4493811;31;32823;-64
2022/04/14 04:06:13;;;;;;;;;;;;;;;12.16;39.14;100097.38;4498905;31;33633;-62
2022/04/14 04:08:43;;;;;;;;;;;;;;;12.10;39.65;100098.69;4487868;31;34308;-64
2022/04/14 04:11:12;;;;;;;;;;;;;;;12.07;39.46;100096.22;4504896;31;32242;-62
2022/04/14 04:13:45;;;;;;;;;;;;;;;12.15;39.12;100095.66;4490672;31;33715;-62
2022/04/14 04:16:13;;;;;;;;;;;;;;;12.15;39.08;100101.87;4488792;31;34154;-62
2022/04/14 04:18:41;;;;;;;;;;;;;;;11.65;40.75;100103.78;4487898;31;32837;-62
2022/04/14 04:21:09;;;;;;;;;;;;;;;11.85;40.65;100105.03;4495994;31;33295;-62
2022/04/14 04:23:37;;;;;;;;;;;;;;;12.35;38.62;100106.56;4490184;31;34910;-62
2022/04/14 04:26:05;;;;;;;;;;;;;;;12.20;38.79;100104.19;4493687;31;34476;-64
2022/04/14 04:28:33;;;;;;;;;;;;;;;12.04;39.52;100102.69;4486190;31;34175;-62
2022/04/14 04:31:01;;;;;;;;;;;;;;;11.74;40.55;100103.09;4483596;31;33462;-65
2022/04/14 04:33:29;;;;;;;;;;;;;;;12.28;38.74;100108.03;4485440;31;33726;-63
2022/04/14 04:35:57;;;;;;;;;;;;;;;12.31;38.70;100110.47;4494115;31;34435;-66
2022/04/14 04:38:25;;;;;;;;;;;;;;;12.29;39.12;100106.19;4493742;31;33155;-63
2022/04/14 04:40:56;;;;;;;;;;;;;;;12.16;39.57;100106.25;4487686;31;33202;-61
2022/04/14 04:43:24;;;;;;;;;;;;;;;12.35;39.34;100108.41;4482999;31;34240;-64
2022/04/14 04:45:52;;;;;;;;;;;;;;;12.49;39.24;100104.69;4498517;31;36217;-68
2022/04/14 04:48:21;;;;;;;;;;;;;;;12.92;38.09;100112.94;4496376;31;33931;-64
2022/04/14 04:50:51;;;;;;;;;;;;;;;12.81;38.50;100115.63;4495326;31;33888;-66
2022/04/14 04:53:19;;;;;;;;;;;;;;;12.95;38.63;100120.75;4497533;31;32780;-62
2022/04/14 04:55:47;;;;;;;;;;;;;;;12.78;37.76;100122.06;4482532;32;33140;-62
2022/04/14 04:58:19;;;;;;;;;;;;;;;12.91;37.46;100131.87;4482386;32;33875;-62
2022/04/14 05:00:50;;;;;;;;;;;;;;;12.74;38.43;100130.47;4482015;32;33510;-65
2022/04/14 05:03:19;;;;;;;;;;;;;;;12.91;37.26;100129.19;4482449;31;35190;-65
2022/04/14 05:05:49;;;;;;;;;;;;;;;12.60;38.82;100126.19;4480850;32;32863;-65
2022/04/14 05:08:18;;;;;;;;;;;;;;;13.03;37.60;100133.56;4480421;32;33739;-64
2022/04/14 05:10:46;;;;;;;;;;;;;;;12.70;38.01;100139.75;4494545;31;32091;-65
2022/04/14 05:13:15;;;;;;;;;;;;;;;12.38;39.43;100135.03;4494739;31;33055;-67
2022/04/14 05:15:43;;;;;;;;;;;;;;;12.95;38.31;100138.69;4494827;31;34127;-65
2022/04/14 05:18:11;;;;;;;;;;;;;;;12.97;38.14;100139.41;4485402;31;34298;-66
2022/04/14 05:20:42;;;;;;;;;;;;;;;12.80;38.45;100140.75;4488594;31;33199;-65
2022/04/14 05:23:10;;;;;;;;;;;;;;;13.15;37.83;100143.34;4483129;31;34208;-66
2022/04/14 05:25:41;;;;;;;;;;;;;;;13.16;38.13;100145.09;4484635;31;34249;-70
2022/04/14 05:28:10;;;;;;;;;;;;;;;13.47;37.44;100139.97;4484546;31;35056;-65
2022/04/14 05:30:38;;;;;;;;;;;;;;;13.83;36.45;100146.00;4495883;31;33260;-66
2022/04/14 05:33:10;;;;;;;;;;;;;;;14.31;36.37;100140.22;4495237;31;34092;-67
2022/04/14 05:35:39;;;;;;;;;;;;;;;14.89;35.58;100141.56;4485590;31;34088;-65
2022/04/14 05:38:07;;;;;;;;;;;;;;;15.19;34.84;100150.66;4482320;31;36000;-68
2022/04/14 05:40:41;;;;;;;;;;;;;;;15.36;34.72;100157.25;4486651;31;33312;-65
2022/04/14 05:43:18;;;;;;;;;;;;;;;15.35;35.39;100150.16;4489500;31;35065;-64
2022/04/14 05:45:48;;;;;;;;;;;;;;;15.58;35.08;100154.34;4481844;31;33014;-65
2022/04/14 05:48:20;;;;;;;;;;;;;;;15.92;34.55;100159.47;4482110;32;32507;-65
2022/04/14 05:50:49;;;;;;;;;;;;;;;16.27;34.12;100155.37;4486268;31;33657;-67
2022/04/14 05:53:24;;;;;;;;;;;;;;;16.51;33.56;100147.69;4493632;31;34163;-65
2022/04/14 05:55:53;;;;;;;;;;;;;;;16.55;32.84;100142.88;4492800;31;33257;-69
2022/04/14 05:58:21;;;;;;;;;;;;;;;16.72;32.80;100149.37;4483170;31;34191;-65
2022/04/14 06:00:50;;;;;;;;;;;;;;;16.82;32.50;100152.09;4492113;31;33955;-65
2022/04/14 06:03:20;;;;;;;;;;;;;;;17.31;32.27;100140.16;4494894;31;33602;-65
2022/04/14 06:05:48;;;;;;;;;;;;;;;17.44;31.42;100151.50;4492675;31;32914;-66
2022/04/14 06:08:16;;;;;;;;;;;;;;;17.26;32.12;100144.31;4480404;31;34802;-66
2022/04/14 06:10:45;;;;;;;;;;;;;;;16.90;32.95;100136.88;4489383;31;33352;-65
2022/04/14 06:13:13;;;;;;;;;;;;;;;16.84;32.12;100142.84;4491311;31;33939;-65
2022/04/14 06:15:42;;;;;;;;;;;;;;;16.83;32.66;100137.59;4480690;31;34764;-65
2022/04/14 06:18:10;;;;;;;;;;;;;;;16.75;34.08;100144.56;4483747;31;35383;-66
2022/04/14 06:20:38;;;;;;;;;;;;;;;16.99;33.28;100141.41;4486090;31;32689;-65
2022/04/14 06:23:08;;;;;;;;;;;;;;;16.88;32.56;100146.13;4488631;31;33705;-66
2022/04/14 06:25:37;;;;;;;;;;;;;;;16.94;32.68;100143.69;4488699;31;35024;-65
2022/04/14 06:28:07;;;;;;;;;;;;;;;17.30;32.89;100141.16;4468009;31;32392;-68
2022/04/14 06:30:35;;;;;;;;;;;;;;;17.29;32.46;100142.16;4493653;31;33196;-65
2022/04/14 06:33:04;;;;;;;;;;;;;;;16.71;31.63;100143.13;4492918;31;34981;-65
2022/04/14 06:35:34;;;;;;;;;;;;;;;16.84;31.73;100142.84;4491376;31;33307;-64
2022/04/14 06:38:02;;;;;;;;;;;;;;;16.54;31.21;100136.59;4489742;31;34010;-65
2022/04/14 06:40:31;;;;;;;;;;;;;;;16.64;31.60;100136.59;4488219;31;32279;-65
2022/04/14 06:43:01;;;;;;;;;;;;;;;16.44;32.55;100138.47;4483017;31;34573;-64
2022/04/14 06:45:31;;;;;;;;;;;;;;;16.45;32.15;100142.03;4497769;31;34361;-65
2022/04/14 06:48:00;;;;;;;;;;;;;;;16.39;31.09;100131.78;4489406;31;34879;-65
2022/04/14 06:50:28;;;;;;;;;;;;;;;15.81;32.78;100141.53;4486367;31;33523;-69
2022/04/14 06:52:56;;;;;;;;;;;;;;;16.14;30.93;100135.87;4489475;31;33342;-65
2022/04/14 06:55:25;;;;;;;;;;;;;;;16.59;31.24;100141.56;4496689;31;35171;-65
2022/04/14 06:57:53;;;;;;;;;;;;;;;16.29;32.07;100148.84;4492783;31;33957;-68
2022/04/14 07:00:21;;;;;;;;;;;;;;;16.40;31.81;100145.13;4495596;31;33157;-65
2022/04/14 07:02:52;;;;;;;;;;;;;;;16.72;31.49;100131.31;4479807;31;35007;-65
2022/04/14 07:05:20;;;;;;;;;;;;;;;17.12;31.06;100134.81;4481672;32;33742;-66
2022/04/14 07:07:49;;;;;;;;;;;;;;;17.27;30.41;100137.88;4481791;31;32524;-65
2022/04/14 07:10:18;;;;;;;;;;;;;;;16.93;30.84;100138.44;4493542;31;34437;-64
2022/04/14 07:12:46;;;;;;;;;;;;;;;16.89;31.30;100135.16;4494086;31;34306;-68
2022/04/14 07:15:14;;;;;;;;;;;;;;;16.90;30.50;100142.28;4483051;31;33858;-65
2022/04/14 07:17:44;;;;;;;;;;;;;;;17.46;29.58;100132.37;4468901;31;33975;-64
2022/04/14 07:20:12;;;;;;;;;;;;;;;17.49;27.55;100137.50;4492212;31;32614;-64
2022/04/14 07:22:46;;;;;;;;;;;;;;;17.78;27.70;100137.38;4496594;31;33774;-65
2022/04/14 07:25:16;;;;;;;;;;;;;;;17.91;26.88;100135.19;4483816;31;34585;-65
2022/04/14 07:27:45;;;;;;;;;;;;;;;17.62;25.54;100139.88;4468073;31;33950;-65
2022/04/14 07:30:15;;;;;;;;;;;;;;;17.37;25.67;100134.16;4482486;31;34966;-65
2022/04/14 07:32:45;;;;;;;;;;;;;;;17.63;26.25;100131.63;4487735;31;32848;-64
2022/04/14 07:35:14;;;;;;;;;;;;;;;17.76;26.13;100139.38;4490097;31;34392;-65
2022/04/14 07:37:44;;;;;;;;;;;;;;;18.03;24.82;100140.38;4481872;31;32886;-68
2022/04/14 07:40:12;;;;;;;;;;;;;;;17.76;24.85;100143.94;4482168;31;31991;-65
2022/04/14 07:42:42;;;;;;;;;;;;;;;17.68;25.12;100142.81;4491826;31;34294;-64
2022/04/14 07:45:11;;;;;;;;;;;;;;;17.64;24.23;100143.28;4453338;31;988223;-66
2022/04/14 07:47:43;;;;;;;;;;;;;;;17.86;24.51;100139.34;4482687;32;33621;-64
2022/04/14 07:50:13;;;;;;;;;;;;;;;17.67;23.67;100143.00;4482536;31;34167;-65
2022/04/14 07:52:48;;;;;;;;;;;;;;;18.22;23.50;100144.81;4484020;31;34968;-66
2022/04/14 07:55:37;;;;;;;;;;;;;;;18.30;22.81;100139.47;4486196;31;34064;-66
2022/04/14 07:58:07;;;;;;;;;;;;;;;18.20;23.62;100142.22;4492725;31;35119;-68
2022/04/14 08:00:36;;;;;;;;;;;;;;;19.23;22.56;100142.56;4495234;31;33317;-66
2022/04/14 08:03:06;;;;;;;;;;;;;;;18.49;21.20;100143.84;4490399;31;34087;-66
2022/04/14 08:05:39;;;;;;;;;;;;;;;18.82;21.16;100140.44;4483725;31;34603;-66
2022/04/14 08:08:13;;;;;;;;;;;;;;;18.93;20.89;100152.03;4489141;31;34234;-65
2022/04/14 08:10:46;;;;;;;;;;;;;;;18.96;22.07;100144.44;4482009;31;33214;-65
2022/04/14 08:13:15;;;;;;;;;;;;;;;19.56;19.99;100151.75;4495002;31;32764;-65
2022/04/14 08:15:43;;;;;;;;;;;;;;;19.41;19.07;100151.50;4495111;31;35492;-65
2022/04/14 08:18:11;;;;;;;;;;;;;;;18.11;19.61;100149.44;4488812;31;35434;-67
2022/04/14 08:20:40;;;;;;;;;;;;;;;17.74;19.14;100146.78;4494232;31;32170;-66
2022/04/14 08:23:12;;;;;;;;;;;;;;;18.82;18.97;100153.16;4495288;31;33062;-66
2022/04/14 08:25:40;;;;;;;;;;;;;;;19.57;19.08;100150.72;4479873;31;34085;-66
2022/04/14 08:28:29;;;;;;;;;;;;;;;19.34;18.50;100152.31;4497590;31;33808;-68
2022/04/14 08:31:02;;;;;;;;;;;;;;;19.36;18.33;100148.44;4496455;31;33031;-69
2022/04/14 08:33:31;;;;;;;;;;;;;;;19.24;19.84;100153.28;4497798;31;32479;-65
2022/04/14 08:36:00;;;;;;;;;;;;;;;19.96;18.73;100148.34;4481452;31;31923;-65
2022/04/14 08:38:32;;;;;;;;;;;;;;;19.09;18.45;100144.00;4469380;32;32731;-66
2022/04/14 08:41:06;;;;;;;;;;;;;;;18.89;18.93;100146.09;4482200;31;34128;-65
2022/04/14 08:44:01;;;;;;;;;;;;;;;19.86;19.47;100142.19;4472436;31;33513;-68
2022/04/14 08:46:33;;;;;;;;;;;;;;;20.02;18.91;100142.25;4492901;31;34546;-66
2022/04/14 08:49:04;;;;;;;;;;;;;;;19.17;19.14;100152.22;4479439;31;33842;-66
2022/04/14 08:51:38;;;;;;;;;;;;;;;18.99;20.16;100148.69;4487592;31;32859;-66
2022/04/14 08:54:13;;;;;;;;;;;;;;;18.91;21.45;100146.78;4487888;31;35645;-66
2022/04/14 08:56:48;;;;;;;;;;;;;;;19.39;19.76;100147.22;4483677;31;33110;-67
2022/04/14 08:59:20;;;;;;;;;;;;;;;19.27;19.92;100142.09;4480494;31;34914;-66
2022/04/14 09:01:56;;;;;;;;;;;;;;;18.78;19.79;100136.38;4482266;31;33111;-66
2022/04/14 09:04:27;;;;;;;;;;;;;;;19.24;20.00;100141.56;4473147;31;33141;-70
2022/04/14 09:07:00;;;;;;;;;;;;;;;19.38;20.22;100142.81;4474293;32;33216;-66
2022/04/14 09:09:37;;;;;;;;;;;;;;;19.35;19.97;100148.56;4483904;31;36531;-65
2022/04/14 09:12:14;;;;;;;;;;;;;;;19.48;19.42;100148.97;4493496;31;32161;-65
2022/04/14 09:14:42;;;;;;;;;;;;;;;18.55;20.36;100152.22;4469119;32;32904;-65
2022/04/14 09:17:16;;;;;;;;;;;;;;;18.83;19.64;100149.44;4486799;31;34282;-67
2022/04/14 09:19:46;;;;;;;;;;;;;;;19.16;19.87;100145.06;4479879;31;32677;-66
2022/04/14 09:22:18;;;;;;;;;;;;;;;19.62;19.65;100142.09;4486894;31;34105;-65
2022/04/14 09:24:51;;;;;;;;;;;;;;;19.36;19.70;100134.84;4495509;31;35820;-65
2022/04/14 09:27:24;;;;;;;;;;;;;;;19.52;19.80;100136.81;4486240;31;36196;-66
2022/04/14 09:29:54;;;;;;;;;;;;;;;19.49;19.92;100147.97;4484361;31;34404;-64
2022/04/14 09:32:27;;;;;;;;;;;;;;;19.72;19.25;100143.69;4492906;31;32091;-69
2022/04/14 09:34:55;;;;;;;;;;;;;;;18.73;20.92;100145.97;4466776;31;32845;-68
2022/04/14 09:37:28;;;;;;;;;;;;;;;19.87;19.66;100134.91;4480275;31;34057;-70
2022/04/14 09:40:11;;;;;;;;;;;;;;;20.72;19.26;100137.44;4495106;31;33240;-66
2022/04/14 09:42:48;;;;;;;;;;;;;;;20.06;20.12;100142.75;4493844;31;33494;-65
2022/04/14 09:45:20;;;;;;;;;;;;;;;19.80;18.36;100132.00;4492218;31;34024;-65
2022/04/14 09:48:06;;;;;;;;;;;;;;;20.36;18.13;100130.44;4486186;31;32899;-66
2022/04/14 09:50:42;;;;;;;;;;;;;;;21.51;17.91;100128.47;4485569;31;33014;-65
2022/04/14 09:53:16;;;;;;;;;;;;;;;22.10;16.79;100126.09;4482274;31;32347;-65
2022/04/14 09:55:50;;;;;;;;;;;;;;;21.17;18.12;100128.69;4495779;31;33951;-65
2022/04/14 09:58:24;;;;;;;;;;;;;;;20.65;17.34;100120.94;4483296;31;32952;-66
2022/04/14 10:00:57;;;;;;;;;;;;;;;21.61;17.04;100122.78;4490200;31;34174;-70
2022/04/14 10:03:30;;;;;;;;;;;;;;;21.09;17.48;100124.13;4488719;31;33040;-65
2022/04/14 10:06:01;;;;;;;;;;;;;;;21.70;16.95;100121.75;4481672;31;34372;-66
2022/04/14 10:08:51;;;;;;;;;;;;;;;21.60;17.24;100116.50;4467862;32;33191;-66
2022/04/14 10:11:34;;;;;;;;;;;;;;;22.19;17.16;100110.56;4483152;31;34020;-66
2022/04/14 10:14:23;;;;;;;;;;;;;;;22.22;16.53;100109.38;4457847;31;34639;-65
2022/04/14 10:16:57;;;;;;;;;;;;;;;22.48;16.33;100104.38;4478116;31;34194;-66
2022/04/14 10:19:34;;;;;;;;;;;;;;;21.71;15.81;100101.63;4495904;31;34502;-66
2022/04/14 10:22:07;;;;;;;;;;;;;;;21.93;16.62;100099.97;4489100;31;33757;-66
2022/04/14 10:24:40;;;;;;;;;;;;;;;22.59;16.22;100099.53;4474338;31;33427;-68
2022/04/14 10:27:14;;;;;;;;;;;;;;;23.11;16.38;100094.06;4467665;32;32553;-64
2022/04/14 10:29:47;;;;;;;;;;;;;;;22.37;16.91;100096.62;4486452;31;33443;-66
2022/04/14 10:32:17;;;;;;;;;;;;;;;23.09;15.95;100089.84;4495010;31;34070;-66
2022/04/14 10:34:47;;;;;;;;;;;;;;;22.82;16.53;100094.84;4494457;31;33506;-65
2022/04/14 10:37:47;;;;;;;;;;;;;;;23.10;16.36;100083.34;4478701;31;33110;-66
2022/04/14 10:40:16;;;;;;;;;;;;;;;23.45;16.22;100088.03;4468406;31;34215;-65
2022/04/14 10:42:48;;;;;;;;;;;;;;;22.65;16.81;100082.41;4484530;31;34154;-66
2022/04/14 10:45:23;;;;;;;;;;;;;;;22.74;16.40;100087.59;4469051;31;32609;-66
2022/04/14 10:47:56;;;;;;;;;;;;;;;22.89;15.75;100076.72;4490900;31;33071;-66
2022/04/14 10:50:29;;;;;;;;;;;;;;;22.31;17.20;100072.81;4499419;31;34480;-67
2022/04/14 10:53:05;;;;;;;;;;;;;;;20.93;17.33;100086.91;4471791;31;35762;-65
2022/04/14 10:55:44;;;;;;;;;;;;;;;22.19;17.25;100080.59;4481700;31;33406;-65
2022/04/14 10:58:26;;;;;;;;;;;;;;;21.48;17.32;100073.50;4485554;31;34689;-65
2022/04/14 11:00:56;;;;;;;;;;;;;;;21.98;16.55;100070.28;4468729;31;32398;-66
2022/04/14 11:03:44;;;;;;;;;;;;;;;22.48;16.94;100073.53;4478340;31;32291;-70
2022/04/14 11:06:35;;;;;;;;;;;;;;;22.60;16.00;100071.19;4482987;31;34143;-66
2022/04/14 11:09:33;;;;;;;;;;;;;;;22.56;16.18;100073.44;4490043;31;32924;-67
2022/04/14 11:12:19;;;;;;;;;;;;;;;23.47;15.91;100072.31;4484071;31;33918;-65
2022/04/14 11:14:56;;;;;;;;;;;;;;;21.23;17.21;100070.84;4485404;31;34201;-65
2022/04/14 11:17:42;;;;;;;;;;;;;;;22.82;16.25;100073.03;4483122;31;33023;-66
2022/04/14 11:20:36;;;;;;;;;;;;;;;23.13;16.95;100061.97;4489247;31;32982;-65
2022/04/14 11:23:09;;;;;;;;;;;;;;;22.60;16.03;100057.56;4482913;31;33047;-68
2022/04/14 11:25:40;;;;;;;;;;;;;;;23.52;16.03;100057.22;4485290;31;34144;-65
2022/04/14 11:28:20;;;;;;;;;;;;;;;22.01;16.20;100063.63;4481444;32;32976;-66
2022/04/14 11:30:59;;;;;;;;;;;;;;;21.74;16.22;100056.84;4482824;31;33211;-65
2022/04/14 11:33:32;;;;;;;;;;;;;;;22.92;15.68;100053.66;4473220;31;34683;-67
2022/04/14 11:36:06;;;;;;;;;;;;;;;23.15;15.54;100045.44;4481384;31;32869;-65
2022/04/14 11:38:53;;;;;;;;;;;;;;;23.63;14.71;100046.66;4488991;31;33272;-65
2022/04/14 11:41:27;;;;;;;;;;;;;;;23.24;15.05;100041.53;4466976;31;34778;-65
2022/04/14 11:43:56;;;;;;;;;;;;;;;22.40;15.88;100041.72;4489802;31;34904;-66
2022/04/14 11:46:24;;;;;;;;;;;;;;;23.23;15.94;100045.31;4475191;31;35852;-65
2022/04/14 11:48:52;;;;;;;;;;;;;;;23.04;15.40;100046.72;4468170;31;32203;-65
2022/04/14 11:51:21;;;;;;;;;;;;;;;22.75;15.69;100042.06;4486883;31;35314;-65
2022/04/14 11:53:54;;;;;;;;;;;;;;;22.01;16.59;100037.22;4482069;31;33389;-65
2022/04/14 11:56:41;;;;;;;;;;;;;;;22.64;16.23;100031.62;4486565;31;33383;-65
2022/04/14 11:59:09;;;;;;;;;;;;;;;23.09;16.40;100030.63;4473265;31;33042;-64
2022/04/14 12:01:49;;;;;;;;;;;;;;;23.11;15.85;100038.62;4486831;31;35037;-65
2022/04/14 12:04:18;;;;;;;;;;;;;;;22.46;16.48;100029.22;4482177;31;32585;-64
2022/04/14 12:06:50;;;;;;;;;;;;;;;22.16;16.29;100025.59;4486369;31;34398;-65
2022/04/14 12:09:19;;;;;;;;;;;;;;;22.04;15.86;100025.97;4477738;32;31590;-64
2022/04/14 12:11:47;;;;;;;;;;;;;;;22.40;16.65;100019.06;4473283;32;34046;-64
2022/04/14 12:14:19;;;;;;;;;;;;;;;22.82;16.42;100020.34;4484785;31;34286;-63
2022/04/14 12:16:51;;;;;;;;;;;;;;;21.74;17.39;100008.66;4483751;31;35135;-67
2022/04/14 12:19:21;;;;;;;;;;;;;;;22.89;16.73;100008.50;4487666;31;32119;-65
2022/04/14 12:21:59;;;;;;;;;;;;;;;22.84;16.81;100007.34;4486735;31;34209;-65
2022/04/14 12:24:29;;;;;;;;;;;;;;;23.00;16.49;99999.84;4488683;31;34485;-65
2022/04/14 12:26:59;;;;;;;;;;;;;;;22.76;16.04;99995.50;4488424;31;32621;-64
2022/04/14 12:29:28;;;;;;;;;;;;;;;23.33;15.54;99987.66;4482977;31;33381;-65
2022/04/14 12:32:04;;;;;;;;;;;;;;;23.28;16.31;99982.78;4483091;31;35182;-64
2022/04/14 12:34:33;;;;;;;;;;;;;;;23.13;15.30;99979.22;4471387;31;34315;-65
2022/04/14 12:37:06;;;;;;;;;;;;;;;23.06;15.97;99981.88;4488397;31;33062;-64
2022/04/14 12:39:38;;;;;;;;;;;;;;;23.53;15.18;99980.56;4470150;31;33066;-65
2022/04/14 12:42:13;;;;;;;;;;;;;;;23.09;15.50;99973.31;4469371;32;33422;-64
2022/04/14 12:44:47;;;;;;;;;;;;;;;22.00;16.04;99972.03;4483794;31;34608;-65
2022/04/14 12:47:15;;;;;;;;;;;;;;;21.89;16.26;99972.44;4486979;31;32963;-65
2022/04/14 12:49:44;;;;;;;;;;;;;;;22.42;15.67;99966.03;4483589;31;33505;-68
2022/04/14 12:52:18;;;;;;;;;;;;;;;22.55;14.66;99963.50;4489485;31;32759;-63
2022/04/14 12:54:47;;;;;;;;;;;;;;;21.62;15.41;99961.91;4468217;32;34333;-65
2022/04/14 12:57:20;;;;;;;;;;;;;;;22.02;14.84;99951.72;4467750;32;32840;-64
2022/04/14 13:00:05;;;;;;;;;;;;;;;21.62;15.15;99956.47;4481605;31;33342;-64
2022/04/14 13:02:33;;;;;;;;;;;;;;;21.24;16.19;99958.19;4483142;31;33871;-64